Time;durP1;ratioP1;P1;durP2;ratioP2;P2;SDS_P1;SDS_P2;PMS_P1;PMS_P2;Temp;Humidity;BMP_temperature;BMP_pressure;BME280_temperature;BME280_humidity;BME280_pressure;Samples;Min_cycle;Max_cycle;Signal;HPM_P1;HPM_P2
2023/06/24 00:02:13;;;;;;;7.70;5.30;;;;;;;22.87;100.00;97064.59;5077789;28;20028;-83
2023/06/24 00:04:50;;;;;;;8.75;5.63;;;;;;;22.97;100.00;97064.97;5079403;27;20098;-83
2023/06/24 00:07:16;;;;;;;6.40;4.70;;;;;;;23.01;100.00;97060.84;5097870;28;20034;-83
2023/06/24 00:09:42;;;;;;;8.43;5.35;;;;;;;22.76;100.00;97072.31;5103130;27;20035;-83
2023/06/24 00:12:07;;;;;;;7.18;5.00;;;;;;;22.51;100.00;97071.44;5088997;28;20031;-83
2023/06/24 00:14:33;;;;;;;7.28;4.57;;;;;;;22.49;100.00;97068.94;5088160;27;20115;-83
2023/06/24 00:17:11;;;;;;;7.03;4.68;;;;;;;22.82;100.00;97076.81;5102288;28;20047;-83
2023/06/24 00:19:37;;;;;;;8.75;4.93;;;;;;;22.55;100.00;97068.09;5103013;27;20046;-82
2023/06/24 00:22:03;;;;;;;7.25;4.72;;;;;;;22.77;100.00;97070.44;5099364;28;20469;-83
2023/06/24 00:24:29;;;;;;;8.77;5.47;;;;;;;22.71;100.00;97069.47;5099596;28;20060;-82
2023/06/24 00:26:56;;;;;;;8.02;5.50;;;;;;;22.86;100.00;97068.31;5114969;28;20086;-82
2023/06/24 00:29:21;;;;;;;7.57;5.53;;;;;;;22.77;100.00;97073.97;5099365;28;20031;-83
2023/06/24 00:31:47;;;;;;;7.72;5.65;;;;;;;22.81;100.00;97072.50;5116542;28;20051;-83
2023/06/24 00:34:13;;;;;;;7.32;5.15;;;;;;;22.93;100.00;97074.50;5109447;27;20031;-83
2023/06/24 00:36:39;;;;;;;7.68;5.38;;;;;;;22.87;100.00;97069.97;5079546;28;20494;-82
2023/06/24 00:39:05;;;;;;;8.70;5.45;;;;;;;22.55;100.00;97073.47;5078186;28;20039;-83
2023/06/24 00:41:34;;;;;;;6.68;4.63;;;;;;;22.80;100.00;97078.06;5089061;28;20515;-82
2023/06/24 00:44:01;;;;;;;7.55;4.03;;;;;;;22.85;100.00;97066.69;5112248;28;20031;-83
2023/06/24 00:46:27;;;;;;;6.93;4.57;;;;;;;22.64;100.00;97063.31;5099054;28;20058;-82
2023/06/24 00:48:55;;;;;;;7.63;4.60;;;;;;;22.96;100.00;97063.34;5093860;28;20036;-83
2023/06/24 00:51:26;;;;;;;7.28;4.90;;;;;;;22.67;100.00;97062.91;5078486;28;20538;-82
2023/06/24 00:53:53;;;;;;;7.78;4.55;;;;;;;22.48;100.00;97066.50;5077906;28;20028;-83
2023/06/24 00:56:22;;;;;;;6.32;4.47;;;;;;;22.52;100.00;97060.47;5082458;28;20023;-82
2023/06/24 00:58:47;;;;;;;7.05;4.15;;;;;;;22.39;100.00;97062.41;5088226;27;20035;-82
2023/06/24 01:01:23;;;;;;;6.80;3.92;;;;;;;22.43;100.00;97064.44;5076683;28;20775;-83
2023/06/24 01:03:49;;;;;;;9.48;6.22;;;;;;;22.65;100.00;97059.59;5116177;27;20075;-83
2023/06/24 01:06:15;;;;;;;63.45;46.33;;;;;;;22.70;100.00;97056.25;5096811;28;20031;-82
2023/06/24 01:08:41;;;;;;;24.02;17.85;;;;;;;22.58;100.00;97056.13;5104773;27;20023;-83
2023/06/24 01:11:06;;;;;;;12.00;7.60;;;;;;;22.67;100.00;97054.00;5102637;27;20043;-83
2023/06/24 01:13:32;;;;;;;7.07;4.55;;;;;;;22.45;100.00;97058.88;5087206;27;20019;-84
2023/06/24 01:16:06;;;;;;;7.43;4.45;;;;;;;22.46;100.00;97063.19;5089466;27;20011;-83
2023/06/24 01:18:44;;;;;;;7.03;4.88;;;;;;;22.27;100.00;97059.59;5114748;27;20373;-83
2023/06/24 01:21:42;;;;;;;7.07;4.50;;;;;;;22.31;100.00;97055.44;5101770;28;20088;-82
2023/06/24 01:24:41;;;;;;;6.88;4.10;;;;;;;22.28;100.00;97056.69;5085755;27;20075;-83
2023/06/24 01:27:07;;;;;;;8.95;4.70;;;;;;;22.30;100.00;97049.28;5095488;28;20061;-83
2023/06/24 01:29:57;;;;;;;6.88;4.30;;;;;;;22.32;100.00;97041.81;5098849;27;20015;-83
2023/06/24 01:32:29;;;;;;;8.23;4.72;;;;;;;22.26;100.00;97050.72;5088599;27;20124;-83
2023/06/24 01:35:11;;;;;;;6.20;4.30;;;;;;;22.22;100.00;97037.97;5089781;27;20126;-82
2023/06/24 01:37:59;;;;;;;7.65;4.65;;;;;;;22.04;100.00;97042.13;5108561;27;20035;-82
2023/06/24 01:40:37;;;;;;;6.85;4.47;;;;;;;21.81;100.00;97042.63;5075332;28;20034;-83
2023/06/24 01:43:04;;;;;;;7.03;4.20;;;;;;;22.16;100.00;97042.31;5091469;28;20032;-83
2023/06/24 01:45:37;;;;;;;6.82;4.38;;;;;;;22.13;100.00;97042.69;5101340;28;20054;-83
2023/06/24 01:48:15;;;;;;;7.18;4.03;;;;;;;21.73;100.00;97036.66;5071718;28;20023;-82
2023/06/24 01:51:01;;;;;;;8.93;4.07;;;;;;;21.63;100.00;97037.94;5075606;28;20038;-83
2023/06/24 01:53:28;;;;;;;7.35;4.80;;;;;;;21.36;100.00;97028.28;5073307;27;20744;-82
2023/06/24 01:55:58;;;;;;;8.18;4.00;;;;;;;21.57;100.00;97027.25;5121967;27;20023;-83
2023/06/24 01:58:24;;;;;;;6.50;4.47;;;;;;;21.36;100.00;97026.47;5080518;28;20038;-81
2023/06/24 02:00:51;;;;;;;7.18;4.40;;;;;;;21.44;100.00;97022.72;5089933;27;20015;-81
2023/06/24 02:03:18;;;;;;;7.55;4.70;;;;;;;21.49;100.00;97019.41;5082142;28;20108;-80
2023/06/24 02:05:46;;;;;;;8.35;4.20;;;;;;;21.67;100.00;97016.94;5078305;27;20031;-81
2023/06/24 02:08:13;;;;;;;6.75;3.88;;;;;;;21.44;100.00;97016.56;5080412;28;20016;-81
2023/06/24 02:10:40;;;;;;;6.68;3.85;;;;;;;21.58;100.00;97018.19;5100821;27;20023;-81
2023/06/24 02:13:09;;;;;;;7.25;4.40;;;;;;;21.64;100.00;97020.03;5074981;28;20016;-81
2023/06/24 02:15:38;;;;;;;9.43;4.57;;;;;;;21.29;100.00;97022.09;5075157;27;20050;-81
2023/06/24 02:18:09;;;;;;;6.60;4.22;;;;;;;21.22;100.00;97015.94;5080865;28;20515;-81
2023/06/24 02:20:38;;;;;;;7.38;4.18;;;;;;;21.54;100.00;97022.31;5073464;28;20508;-81
2023/06/24 02:23:08;;;;;;;9.45;4.53;;;;;;;21.37;100.00;97021.94;5100289;28;20476;-81
2023/06/24 02:25:34;;;;;;;8.20;4.32;;;;;;;21.35;100.00;97007.91;5085541;27;20026;-81
2023/06/24 02:28:00;;;;;;;7.53;3.97;;;;;;;21.22;100.00;97016.75;5093029;28;20110;-81
2023/06/24 02:30:28;;;;;;;8.25;4.53;;;;;;;21.20;100.00;97013.47;5091271;28;20031;-81
2023/06/24 02:32:54;;;;;;;9.65;4.70;;;;;;;21.03;100.00;97013.06;5097203;27;20083;-82
2023/06/24 02:35:19;;;;;;;9.43;4.80;;;;;;;21.16;100.00;97009.56;5104263;28;20023;-81
2023/06/24 02:37:46;;;;;;;8.15;4.40;;;;;;;21.16;100.00;97009.56;5088583;28;20198;-80
2023/06/24 02:40:12;;;;;;;7.28;5.00;;;;;;;21.10;100.00;97010.41;5088166;28;20020;-81
2023/06/24 02:42:37;;;;;;;7.90;4.57;;;;;;;20.98;100.00;97022.72;5083721;27;20026;-81
2023/06/24 02:45:05;;;;;;;6.72;4.15;;;;;;;20.72;100.00;97013.66;5097031;28;20023;-81
2023/06/24 02:47:33;;;;;;;6.88;4.60;;;;;;;20.69;100.00;97014.91;5089858;28;20096;-81
2023/06/24 02:49:59;;;;;;;8.32;5.20;;;;;;;20.76;100.00;97006.91;5095995;27;20019;-81
2023/06/24 02:52:28;;;;;;;8.95;4.53;;;;;;;20.51;100.00;97016.53;5097997;27;20361;-81
2023/06/24 02:54:57;;;;;;;7.93;4.93;;;;;;;20.15;100.00;97017.63;5074211;28;20043;-81
2023/06/24 02:57:44;;;;;;;8.65;4.70;;;;;;;20.33;100.00;97017.06;5099982;28;20057;-81
2023/06/24 03:00:33;;;;;;;7.88;4.70;;;;;;;20.06;100.00;97021.50;5094471;28;20034;-81
2023/06/24 03:03:08;;;;;;;7.38;4.90;;;;;;;20.28;100.00;97027.53;5090774;28;20026;-81
2023/06/24 03:05:38;;;;;;;6.90;4.20;;;;;;;20.15;100.00;97030.97;5083120;28;20027;-81
2023/06/24 03:08:05;;;;;;;9.95;4.95;;;;;;;20.05;100.00;97027.84;5090175;27;20011;-81
2023/06/24 03:10:31;;;;;;;8.15;4.35;;;;;;;20.06;100.00;97024.19;5088089;27;20023;-81
2023/06/24 03:12:57;;;;;;;7.45;4.28;;;;;;;19.91;100.00;97027.78;5077558;28;20038;-81
2023/06/24 03:15:31;;;;;;;7.28;4.43;;;;;;;20.04;100.00;97027.03;5075340;27;20133;-81
2023/06/24 03:17:57;;;;;;;6.50;4.37;;;;;;;20.02;100.00;97029.09;5094624;28;20016;-81
2023/06/24 03:20:23;;;;;;;10.93;4.70;;;;;;;20.00;100.00;97036.47;5083215;27;20076;-81
2023/06/24 03:22:49;;;;;;;7.50;4.60;;;;;;;20.04;100.00;97039.56;5074559;28;20018;-81
2023/06/24 03:25:22;;;;;;;9.70;4.83;;;;;;;20.23;100.00;97036.97;5078425;28;20027;-81
2023/06/24 03:27:48;;;;;;;8.73;4.80;;;;;;;19.60;100.00;97048.75;5079926;28;20034;-81
2023/06/24 03:30:15;;;;;;;8.15;4.65;;;;;;;19.84;100.00;97050.16;5083857;28;20046;-82
2023/06/24 03:32:46;;;;;;;9.93;4.10;;;;;;;19.56;100.00;97056.34;5093178;28;20041;-81
2023/06/24 03:35:18;;;;;;;7.47;4.87;;;;;;;19.47;100.00;97052.16;5083576;28;20022;-82
2023/06/24 03:37:45;;;;;;;7.00;4.27;;;;;;;19.44;100.00;97053.38;5103085;28;20023;-81
2023/06/24 03:40:12;;;;;;;6.60;4.37;;;;;;;19.67;100.00;97058.47;5092922;28;20023;-81
2023/06/24 03:42:37;;;;;;;7.70;4.70;;;;;;;19.74;100.00;97058.50;5091683;28;20122;-81
2023/06/24 03:45:04;;;;;;;7.37;4.47;;;;;;;19.64;100.00;97055.38;5083004;28;20478;-81
2023/06/24 03:47:29;;;;;;;8.70;5.50;;;;;;;19.59;100.00;97061.28;5090451;28;20015;-82
2023/06/24 03:49:55;;;;;;;8.17;4.53;;;;;;;19.59;100.00;97055.13;5093514;28;20046;-81
2023/06/24 03:52:20;;;;;;;8.37;4.70;;;;;;;19.52;100.00;97065.75;5092814;28;20046;-81
2023/06/24 03:54:46;;;;;;;7.23;4.50;;;;;;;19.58;100.00;97058.78;5082381;28;20295;-81
2023/06/24 03:57:13;;;;;;;11.97;4.57;;;;;;;19.65;100.00;97063.19;5071513;28;20105;-81
2023/06/24 03:59:42;;;;;;;8.47;4.70;;;;;;;19.51;100.00;97064.06;5099816;28;20023;-81
2023/06/24 04:02:10;;;;;;;6.70;4.63;;;;;;;19.72;100.00;97068.56;5107140;28;20061;-81
2023/06/24 04:04:36;;;;;;;6.87;4.50;;;;;;;19.95;100.00;97065.59;5100096;28;20022;-81
2023/06/24 04:07:05;;;;;;;8.48;5.13;;;;;;;20.00;100.00;97073.84;5081065;28;20102;-83
2023/06/24 04:09:33;;;;;;;11.50;5.50;;;;;;;20.09;100.00;97074.50;5130621;28;20064;-81
2023/06/24 04:11:59;;;;;;;9.10;5.00;;;;;;;19.86;100.00;97083.63;5075802;28;20661;-81
2023/06/24 04:14:32;;;;;;;9.75;5.35;;;;;;;19.90;100.00;97078.72;5097575;28;20023;-81
2023/06/24 04:16:58;;;;;;;7.60;4.10;;;;;;;19.92;100.00;97090.00;5098232;28;20119;-82
2023/06/24 04:19:23;;;;;;;7.70;4.80;;;;;;;20.00;100.00;97084.53;5109517;28;20419;-81
2023/06/24 04:21:49;;;;;;;6.93;4.33;;;;;;;20.38;100.00;97087.56;5091555;28;20012;-81
2023/06/24 04:24:14;;;;;;;7.25;5.13;;;;;;;20.27;100.00;97095.34;5090518;28;20027;-81
2023/06/24 04:26:40;;;;;;;8.32;4.40;;;;;;;20.20;100.00;97089.97;5085273;28;20031;-81
2023/06/24 04:29:05;;;;;;;9.10;4.90;;;;;;;20.46;100.00;97094.59;5073571;28;20020;-81
2023/06/24 04:31:31;;;;;;;7.47;4.50;;;;;;;20.69;100.00;97083.56;5081275;28;20065;-81
2023/06/24 04:33:57;;;;;;;7.07;4.82;;;;;;;20.55;100.00;97081.88;5096291;28;20438;-81
2023/06/24 04:36:23;;;;;;;7.80;4.60;;;;;;;20.75;100.00;97081.94;5093765;28;20118;-81
2023/06/24 04:38:48;;;;;;;6.88;4.20;;;;;;;;;;5091052;28;20119;-81
2023/06/24 04:41:14;;;;;;;6.72;4.72;;;;;;;20.89;100.00;97087.13;5095044;28;20028;-82
2023/06/24 04:43:39;;;;;;;7.07;4.47;;;;;;;20.70;100.00;97096.72;5073886;28;20073;-81
2023/06/24 04:46:05;;;;;;;6.97;4.15;;;;;;;20.93;100.00;97099.06;5099462;28;20015;-81
2023/06/24 04:48:31;;;;;;;8.88;4.38;;;;;;;21.21;100.00;97098.03;5074666;28;20016;-81
2023/06/24 04:50:57;;;;;;;9.57;4.38;;;;;;;21.01;100.00;97094.53;5102641;28;20048;-81
2023/06/24 04:53:23;;;;;;;7.15;4.40;;;;;;;21.24;100.00;97100.31;5124520;27;20011;-82
2023/06/24 04:55:57;;;;;;;6.40;4.22;;;;;;;21.31;100.00;97098.44;5102686;27;20495;-81
2023/06/24 04:58:22;;;;;;;7.40;3.83;;;;;;;21.40;100.00;97091.91;5090672;28;20046;-81
2023/06/24 05:00:48;;;;;;;7.05;4.30;;;;;;;21.71;100.00;97100.31;5080575;28;20027;-81
2023/06/24 05:03:14;;;;;;;10.48;4.90;;;;;;;22.00;100.00;97093.63;5076938;28;20107;-81
2023/06/24 05:05:39;;;;;;;7.13;4.05;;;;;;;22.08;100.00;97093.44;5088002;28;20031;-81
2023/06/24 05:08:05;;;;;;;6.60;4.13;;;;;;;22.04;100.00;97095.69;5091847;27;20079;-82
2023/06/24 05:10:30;;;;;;;8.23;4.13;;;;;;;22.27;100.00;97102.47;5079716;27;20457;-81
2023/06/24 05:12:59;;;;;;;6.85;4.10;;;;;;;22.65;100.00;97094.44;5090781;27;20023;-81
2023/06/24 05:15:24;;;;;;;6.53;3.75;;;;;;;22.34;100.00;97109.44;5098644;28;20057;-81
2023/06/24 05:17:50;;;;;;;6.72;4.05;;;;;;;22.53;100.00;97101.50;5092580;28;20089;-81
2023/06/24 05:20:17;;;;;;;6.97;4.03;;;;;;;22.36;100.00;97107.34;5113018;28;20029;-81
2023/06/24 05:22:43;;;;;;;5.38;3.78;;;;;;;22.58;100.00;97099.03;5079994;27;20028;-81
2023/06/24 05:25:10;;;;;;;6.63;4.13;;;;;;;22.33;100.00;97117.69;5119349;27;20020;-81
2023/06/24 05:27:35;;;;;;;5.35;3.65;;;;;;;22.67;100.00;97103.09;5085541;28;20107;-81
2023/06/24 05:30:01;;;;;;;7.13;3.85;;;;;;;23.06;100.00;97106.59;5089263;27;20023;-81
2023/06/24 05:32:26;;;;;;;7.72;4.30;;;;;;;22.54;100.00;97103.19;5089222;28;20032;-81
2023/06/24 05:34:52;;;;;;;7.50;4.13;;;;;;;22.79;100.00;97108.59;5085684;28;20027;-82
2023/06/24 05:37:17;;;;;;;7.22;4.40;;;;;;;23.22;100.00;97102.56;5098532;28;20024;-81
2023/06/24 05:39:43;;;;;;;6.05;3.70;;;;;;;23.10;100.00;97102.44;5110766;27;20042;-82
2023/06/24 05:42:25;;;;;;;5.78;3.55;;;;;;;23.62;100.00;97102.25;5091642;27;20015;-82
2023/06/24 05:44:51;;;;;;;7.83;3.87;;;;;;;23.17;100.00;97103.25;5077924;27;20034;-81
2023/06/24 05:47:16;;;;;;;6.25;3.80;;;;;;;23.28;100.00;97104.38;5093057;28;20032;-81
2023/06/24 05:49:42;;;;;;;5.97;3.90;;;;;;;23.89;100.00;97108.22;5088533;28;20026;-82
2023/06/24 05:52:08;;;;;;;7.10;3.50;;;;;;;24.41;100.00;97104.16;5081403;27;20031;-82
2023/06/24 05:54:33;;;;;;;7.00;3.78;;;;;;;24.08;100.00;97101.81;5103702;27;20102;-81
2023/06/24 05:56:59;;;;;;;8.23;3.88;;;;;;;24.59;100.00;97100.59;5099025;28;20038;-82
2023/06/24 05:59:25;;;;;;;6.65;3.30;;;;;;;24.49;100.00;97102.19;5077044;28;20615;-82
2023/06/24 06:01:50;;;;;;;7.85;4.38;;;;;;;24.80;100.00;97098.44;5104085;28;20472;-82
2023/06/24 06:04:16;;;;;;;5.85;3.58;;;;;;;25.12;100.00;97094.50;5077570;28;20027;-81
2023/06/24 06:06:41;;;;;;;8.38;3.92;;;;;;;25.16;100.00;97090.28;5097410;27;20031;-81
2023/06/24 06:09:07;;;;;;;6.70;4.00;;;;;;;25.35;99.09;97095.56;5075483;28;21901;-82
2023/06/24 06:11:32;;;;;;;6.53;3.72;;;;;;;25.69;95.83;97102.06;5079003;27;20028;-81
2023/06/24 06:13:58;;;;;;;5.70;3.42;;;;;;;25.98;96.77;97104.88;5075958;28;20032;-81
2023/06/24 06:16:24;;;;;;;6.82;3.80;;;;;;;26.24;94.04;97095.47;5087944;28;20072;-81
2023/06/24 06:18:50;;;;;;;5.82;3.97;;;;;;;25.92;93.46;97108.50;5105892;28;20028;-81
2023/06/24 06:21:17;;;;;;;6.60;3.60;;;;;;;26.39;91.06;97095.78;5081565;28;20024;-87
2023/06/24 06:23:43;;;;;;;5.93;3.90;;;;;;;25.98;94.09;97108.38;5077547;28;20420;-81
2023/06/24 06:26:10;;;;;;;7.28;3.72;;;;;;;26.94;84.76;97095.25;5060713;28;20092;-80
2023/06/24 06:28:35;;;;;;;7.07;3.95;;;;;;;26.78;89.70;97091.44;5093508;27;20451;-80
2023/06/24 06:31:01;;;;;;;6.07;3.85;;;;;;;27.65;86.88;97097.53;5100374;28;20032;-80
2023/06/24 06:33:30;;;;;;;7.80;4.78;;;;;;;28.38;82.79;97099.09;5110546;28;20020;-80
2023/06/24 06:36:05;;;;;;;8.75;4.20;;;;;;;27.69;84.28;97102.16;5077128;28;20084;-80
2023/06/24 06:38:33;;;;;;;6.32;3.85;;;;;;;27.80;82.90;97100.50;5084096;27;20429;-80
2023/06/24 06:40:59;;;;;;;7.32;3.95;;;;;;;28.04;84.00;97100.28;5101870;27;20081;-81
2023/06/24 06:43:34;;;;;;;8.27;3.83;;;;;;;28.92;73.59;97102.97;5077391;28;20024;-80
2023/06/24 06:46:03;;;;;;;8.40;4.93;;;;;;;29.11;73.93;97088.03;5085247;28;20027;-80
2023/06/24 06:48:28;;;;;;;5.57;3.47;;;;;;;29.31;75.62;97090.91;5076913;28;20020;-84
2023/06/24 06:50:54;;;;;;;9.32;4.03;;;;;;;29.36;73.82;97087.44;5101024;27;20029;-81
2023/06/24 06:53:55;;;;;;;7.50;4.32;;;;;;;29.91;70.21;97088.09;5094019;28;20036;-83
2023/06/24 06:56:40;;;;;;;7.70;3.58;;;;;;;30.22;66.56;97087.25;5074871;28;20063;-82
2023/06/24 06:59:09;;;;;;;5.82;3.55;;;;;;;29.88;67.82;97086.75;5082326;28;20019;-83
2023/06/24 07:01:39;;;;;;;6.60;4.28;;;;;;;30.56;61.60;97088.72;5118038;27;20058;-82
2023/06/24 07:04:04;;;;;;;6.43;4.13;;;;;;;30.64;63.20;97091.72;5094255;27;20107;-80
2023/06/24 07:06:32;;;;;;;6.50;4.35;;;;;;;31.19;59.46;97078.56;5082581;28;20034;-79
2023/06/24 07:08:58;;;;;;;5.43;3.63;;;;;;;31.66;58.82;97091.91;5108150;28;20113;-79
2023/06/24 07:11:24;;;;;;;6.13;3.72;;;;;;;31.39;54.56;97091.38;5096281;28;20110;-79
2023/06/24 07:13:51;;;;;;;5.05;3.63;;;;;;;31.05;58.56;97091.03;5084768;28;20023;-80
2023/06/24 07:16:17;;;;;;;6.38;3.90;;;;;;;31.74;54.78;97089.72;5092036;28;20471;-80
2023/06/24 07:18:43;;;;;;;5.90;3.65;;;;;;;30.46;59.18;97090.31;5117185;27;20023;-85
2023/06/24 07:21:09;;;;;;;8.38;3.60;;;;;;;30.84;59.44;97090.19;5072126;28;20035;-82
2023/06/24 07:23:34;;;;;;;6.47;3.50;;;;;;;30.65;56.33;97093.38;5096180;27;20065;-81
2023/06/24 07:26:00;;;;;;;9.75;3.50;;;;;;;30.74;57.56;97099.91;5093791;28;20011;-81
2023/06/24 07:28:26;;;;;;;4.97;3.22;;;;;;;30.94;57.04;97091.00;5074479;28;20015;-82
2023/06/24 07:30:51;;;;;;;6.28;3.20;;;;;;;31.15;53.18;97097.28;5089696;28;20404;-82
2023/06/24 07:33:17;;;;;;;5.45;3.35;;;;;;;31.12;52.80;97097.00;5090011;28;20023;-81
2023/06/24 07:35:42;;;;;;;5.57;3.80;;;;;;;32.02;49.65;97099.19;5102096;28;20102;-82
2023/06/24 07:38:08;;;;;;;6.43;3.47;;;;;;;32.88;47.88;97095.34;5074674;28;20024;-80
2023/06/24 07:40:33;;;;;;;6.70;3.70;;;;;;;31.24;52.83;97094.84;5086185;28;20393;-79
2023/06/24 07:42:59;;;;;;;5.40;4.10;;;;;;;31.48;51.10;97095.16;5116073;28;20464;-80
2023/06/24 07:45:25;;;;;;;6.18;3.45;;;;;;;33.18;46.84;97078.00;5084466;28;20393;-80
2023/06/24 07:47:51;;;;;;;7.35;3.65;;;;;;;32.15;47.06;97088.53;5103571;28;20023;-79
2023/06/24 07:50:16;;;;;;;5.63;3.35;;;;;;;32.83;45.19;97092.63;5075427;28;20366;-80
2023/06/24 07:52:42;;;;;;;7.30;4.10;;;;;;;32.93;45.71;97095.31;5091615;28;20031;-81
2023/06/24 07:55:08;;;;;;;6.35;3.42;;;;;;;32.82;47.06;97096.47;5097883;28;20035;-81
2023/06/24 07:57:33;;;;;;;6.80;4.07;;;;;;;32.38;46.00;97097.19;5080683;28;20039;-84
2023/06/24 07:59:59;;;;;;;8.10;3.90;;;;;;;31.48;49.80;97095.16;5086771;28;20110;-82
2023/06/24 08:02:26;;;;;;;5.88;3.85;;;;;;;31.57;53.49;97090.81;5113623;28;20023;-82
2023/06/24 08:04:52;;;;;;;5.53;3.45;;;;;;;30.39;57.18;97087.03;5085887;28;20102;-81
2023/06/24 08:07:18;;;;;;;6.53;4.13;;;;;;;30.73;57.87;97095.56;5075108;28;20027;-81
2023/06/24 08:09:43;;;;;;;6.00;3.90;;;;;;;32.11;52.08;97086.66;5088967;27;20019;-81
2023/06/24 08:12:09;;;;;;;6.38;3.90;;;;;;;32.79;47.73;97089.66;5083679;28;20020;-80
2023/06/24 08:14:35;;;;;;;5.30;3.58;;;;;;;32.69;48.53;97089.72;5093328;27;20019;-81
2023/06/24 08:17:01;;;;;;;6.57;4.25;;;;;;;33.24;44.30;97081.50;5108704;27;20764;-81
2023/06/24 08:19:27;;;;;;;8.07;4.07;;;;;;;33.16;43.12;97088.34;5093314;28;20425;-86
2023/06/24 08:21:53;;;;;;;6.10;4.22;;;;;;;33.45;42.44;97077.50;5114225;28;20019;-81
2023/06/24 08:24:19;;;;;;;5.97;4.15;;;;;;;32.29;47.39;97082.50;5114528;27;20110;-81
2023/06/24 08:26:44;;;;;;;7.88;4.15;;;;;;;33.37;42.74;97080.03;5113228;28;20022;-81
2023/06/24 08:29:10;;;;;;;5.45;3.70;;;;;;;34.78;40.54;97070.66;5096444;28;20030;-80
2023/06/24 08:31:35;;;;;;;8.00;4.03;;;;;;;35.14;38.81;97073.66;5085026;27;20484;-83
2023/06/24 08:34:06;;;;;;;5.70;4.28;;;;;;;34.20;39.05;97076.25;5095199;27;20931;-83
2023/06/24 08:36:32;;;;;;;5.53;3.92;;;;;;;33.75;39.93;97075.63;5086362;28;20019;-83
2023/06/24 08:39:01;;;;;;;9.80;4.63;;;;;;;33.84;39.51;97073.06;5085280;27;20018;-82
2023/06/24 08:41:27;;;;;;;5.43;3.90;;;;;;;33.70;40.46;97075.66;5084183;28;20115;-83
2023/06/24 08:43:54;;;;;;;6.40;3.50;;;;;;;33.50;40.45;97074.78;5083578;28;20786;-83
2023/06/24 08:46:21;;;;;;;5.63;3.50;;;;;;;31.92;47.03;97083.72;5084718;28;20106;-84
2023/06/24 08:48:48;;;;;;;8.05;4.30;;;;;;;32.24;45.28;97075.19;5066749;28;20031;-82
2023/06/24 08:51:31;;;;;;;5.60;3.50;;;;;;;33.61;43.66;97074.69;5080842;28;20015;-83
2023/06/24 08:53:58;;;;;;;5.90;3.85;;;;;;;32.55;42.36;97073.19;5097588;27;20103;-82
2023/06/24 08:56:24;;;;;;;5.95;3.65;;;;;;;31.09;45.62;97076.66;5083762;28;20062;-82
2023/06/24 08:58:50;;;;;;;5.07;3.53;;;;;;;30.94;44.66;97084.78;5099269;27;20026;-83
2023/06/24 09:01:30;;;;;;;4.65;3.15;;;;;;;33.63;40.98;97069.75;5088835;28;20081;-82
2023/06/24 09:03:56;;;;;;;5.18;3.45;;;;;;;34.44;35.18;97077.06;5087791;27;20473;-83
2023/06/24 09:06:22;;;;;;;5.32;3.20;;;;;;;35.62;33.46;97064.44;5080678;28;20020;-82
2023/06/24 09:08:57;;;;;;;4.78;3.45;;;;;;;34.44;33.77;97070.78;5106354;28;20045;-81
2023/06/24 09:11:28;;;;;;;5.88;3.08;;;;;;;34.51;34.34;97065.78;5111884;28;20015;-82
2023/06/24 09:14:03;;;;;;;7.13;3.72;;;;;;;34.15;33.29;97073.59;5091132;27;20015;-81
2023/06/24 09:16:29;;;;;;;4.30;2.90;;;;;;;35.32;31.79;97069.28;5102291;28;20031;-81
2023/06/24 09:18:55;;;;;;;4.85;3.58;;;;;;;35.89;30.51;97067.22;5084132;28;20489;-81
2023/06/24 09:21:34;;;;;;;6.40;3.70;;;;;;;34.65;32.83;97068.63;5096138;28;20042;-81
2023/06/24 09:24:00;;;;;;;4.78;3.42;;;;;;;35.91;31.60;97057.91;5080250;27;20047;-82
2023/06/24 09:26:29;;;;;;;6.32;3.42;;;;;;;37.21;30.15;97062.03;5110100;27;20032;-82
2023/06/24 09:28:57;;;;;;;6.35;3.55;;;;;;;37.76;28.79;97059.00;5090586;27;20046;-81
2023/06/24 09:31:29;;;;;;;7.28;3.85;;;;;;;36.10;29.29;97058.66;5088140;28;20027;-81
2023/06/24 09:33:57;;;;;;;4.93;3.20;;;;;;;35.33;29.54;97049.03;5101923;28;20023;-81
2023/06/24 09:36:23;;;;;;;4.65;3.35;;;;;;;36.21;28.42;97054.59;5085285;28;20088;-82
2023/06/24 09:38:49;;;;;;;4.72;3.47;;;;;;;33.20;32.99;97050.44;5083082;28;20032;-81
2023/06/24 09:41:14;;;;;;;5.40;3.45;;;;;;;34.59;33.09;97046.03;5083297;27;20023;-81
2023/06/24 09:43:43;;;;;;;5.05;3.55;;;;;;;35.06;31.45;97043.47;5115125;27;20027;-82
2023/06/24 09:46:09;;;;;;;4.93;3.22;;;;;;;36.63;29.67;97038.94;5095995;27;20019;-82
2023/06/24 09:48:35;;;;;;;5.43;3.67;;;;;;;36.19;30.19;97043.13;5087224;28;20104;-82
2023/06/24 09:51:03;;;;;;;4.78;2.60;;;;;;;34.67;32.58;97041.81;5095917;28;20039;-82
2023/06/24 09:53:33;;;;;;;7.43;3.65;;;;;;;34.69;32.46;97045.09;5097544;27;20042;-81
2023/06/24 09:56:04;;;;;;;5.13;3.38;;;;;;;32.95;35.40;97038.63;5087808;27;20042;-81
2023/06/24 09:58:32;;;;;;;5.05;3.78;;;;;;;33.79;35.02;97035.75;5082779;27;20743;-81
2023/06/24 10:01:03;;;;;;;4.97;3.72;;;;;;;33.21;35.87;97036.53;5082312;28;20185;-82
2023/06/24 10:03:31;;;;;;;4.68;3.10;;;;;;;33.38;36.11;97035.31;5097785;28;20024;-81
2023/06/24 10:05:57;;;;;;;4.45;2.80;;;;;;;32.22;38.75;97033.00;5104651;27;20031;-81
2023/06/24 10:08:23;;;;;;;11.68;7.97;;;;;;;33.62;36.60;97038.13;5108441;28;20015;-81
2023/06/24 10:10:49;;;;;;;7.75;4.25;;;;;;;33.43;35.34;97030.59;5099438;27;20034;-81
2023/06/24 10:13:15;;;;;;;6.97;4.88;;;;;;;33.44;36.04;97034.19;5083216;28;21012;-81
2023/06/24 10:15:40;;;;;;;5.05;3.22;;;;;;;34.83;33.42;97029.56;5104191;28;20037;-81
2023/06/24 10:18:31;;;;;;;7.43;3.45;;;;;;;34.87;32.62;97024.31;5095203;28;20027;-81
2023/06/24 10:20:58;;;;;;;5.60;3.17;;;;;;;34.84;33.28;97020.25;5089779;27;20019;-81
2023/06/24 10:23:30;;;;;;;4.65;3.50;;;;;;;34.44;33.86;97022.44;5097365;28;20914;-81
2023/06/24 10:25:56;;;;;;;5.90;3.60;;;;;;;34.72;31.87;97017.16;5079087;28;20131;-81
2023/06/24 10:28:26;;;;;;;5.38;3.05;;;;;;;36.05;29.81;97007.56;5078176;28;20020;-82
2023/06/24 10:30:56;;;;;;;5.25;3.03;;;;;;;34.11;31.76;97013.31;5093625;28;20029;-82
2023/06/24 10:33:23;;;;;;;4.85;3.10;;;;;;;34.65;31.18;97001.16;5076881;28;20051;-83
2023/06/24 10:36:00;;;;;;;4.78;3.03;;;;;;;33.98;31.86;96998.44;5090272;28;20045;-83
2023/06/24 10:38:25;;;;;;;4.68;3.10;;;;;;;34.30;31.56;96993.41;5083860;28;20028;-83
2023/06/24 10:40:51;;;;;;;4.80;3.00;;;;;;;33.84;31.91;96991.22;5108245;28;20053;-80
2023/06/24 10:43:26;;;;;;;4.47;3.08;;;;;;;34.50;29.42;96993.13;5102050;27;20019;-81
2023/06/24 10:45:55;;;;;;;4.18;2.78;;;;;;;35.51;29.65;96987.16;5106380;27;20019;-84
2023/06/24 10:48:21;;;;;;;6.35;4.00;;;;;;;35.94;28.75;97002.53;5078300;28;20024;-80
2023/06/24 10:50:49;;;;;;;5.68;3.17;;;;;;;36.84;28.19;96986.41;5078889;27;20299;-81
2023/06/24 10:53:15;;;;;;;4.25;2.72;;;;;;;37.02;28.21;96978.03;5074793;28;20773;-82
2023/06/24 10:55:43;;;;;;;5.07;3.30;;;;;;;37.89;27.46;96970.22;5104581;28;20114;-80
2023/06/24 10:58:11;;;;;;;6.93;3.50;;;;;;;35.77;29.22;96976.59;5087139;28;20019;-80
2023/06/24 11:00:36;;;;;;;4.00;2.85;;;;;;;36.16;29.29;96974.47;5117572;27;20072;-80
2023/06/24 11:03:28;;;;;;;6.22;3.75;;;;;;;34.79;29.66;96965.69;5097099;27;20011;-81
2023/06/24 11:05:55;;;;;;;5.70;3.00;;;;;;;34.54;30.85;96971.53;5096727;28;20063;-81
2023/06/24 11:08:24;;;;;;;3.70;2.60;;;;;;;34.77;31.43;96965.16;5071222;28;20477;-82
2023/06/24 11:10:50;;;;;;;3.67;2.42;;;;;;;34.69;30.43;96963.13;5103155;27;20026;-83
2023/06/24 11:13:20;;;;;;;7.43;3.70;;;;;;;34.26;29.87;96963.16;5134996;27;20038;-84
2023/06/24 11:15:46;;;;;;;9.30;4.00;;;;;;;33.40;30.20;96963.03;5105299;28;20504;-83
2023/06/24 11:18:11;;;;;;;5.00;2.55;;;;;;;33.17;29.40;96966.53;5092220;28;20028;-83
2023/06/24 11:20:38;;;;;;;12.15;9.63;;;;;;;35.42;27.35;96959.72;5086157;28;20038;-82
2023/06/24 11:23:10;;;;;;;5.38;3.58;;;;;;;35.49;27.37;96953.03;5122600;27;20099;-83
2023/06/24 11:25:43;;;;;;;4.10;2.55;;;;;;;35.75;25.82;96951.47;5090973;27;20023;-83
2023/06/24 11:28:21;;;;;;;4.30;3.03;;;;;;;36.46;25.47;96945.59;5095709;28;20024;-83
2023/06/24 11:30:46;;;;;;;4.65;2.65;;;;;;;36.37;26.05;96950.19;5084746;27;20602;-82
2023/06/24 11:33:12;;;;;;;4.78;3.25;;;;;;;36.32;25.87;96945.66;5089882;27;20031;-82
2023/06/24 11:35:38;;;;;;;4.90;3.10;;;;;;;36.13;25.66;96945.78;5087137;28;20460;-83